Terminal Aerodrome Forecast
Issued by NWS Cleveland, OH

Home | Current Version | Previous Version | Text Only | Print | Product List | Glossary On
Versions: 1 2 3 4 5 6 7 8 9 10 11 12 13 14 15 16 17 18 19 20 21 22 23 24
785
FTUS41 KCLE 240104 AAA
TAFERI
TAF AMD
KERI 240104Z 2401/2424 25022G36KT P6SM VCSH OVC015
      TEMPO 2401/2405 3SM -FZRASN BR OVC009
     FM240600 29014G24KT 3SM -SHSN OVC015
     FM240900 28011KT 3SM -SHSN OVC020
     FM242000 29009KT P6SM VCSH OVC035=

USA.gov is the U.S. government's official web portal to all federal, state and local government web resources and services.